HJFA4: James Fork nr Hackett 2S

                                SHEF ID:       HJFA4     James Fork nr Hackett 2S
STATION TYPE:

STAGE RIV-FLOW BAT-LOAD
ft cfs volt
Ccp-Rev Ccp-Rev Ccp-Rev
(America/Chicago)
04/26 00:00 10.75 1245 12.53
04/26 01:00 13.72 1967 12.50
04/26 02:00 16.10 2593 12.47
04/26 03:00 17.70 3121 12.44
04/26 04:00 18.85 3571 12.40
04/26 05:00 19.76 3964 12.36
04/26 06:00 20.52 4431 12.34
04/26 07:00 21.14 4896 12.33
04/26 08:00 21.63 5370 12.48
04/26 09:00 22.01 5791 13.05
04/26 10:00 22.37 6417 13.15
04/26 11:00 22.61 6864 ----
04/26 12:00 22.78 7197 13.09
04/26 13:00 22.92 7480 12.94
04/26 14:00 22.99 7626 13.04
04/26 15:00 22.92 7480 12.96
04/26 16:00 22.74 7117 12.90
04/26 17:00 22.24 6185 12.86
04/26 18:00 21.52 5261 12.74
04/26 19:00 20.47 4396 12.77
04/26 20:00 19.16 3702 12.62
04/26 21:00 17.81 3158 12.57
04/26 22:00 16.40 2689 12.56
04/26 23:00 15.03 2301 12.54
Data processed at Mon 27Apr2026 04:35 GMT

NOTICE: If you are parsing this page

Please convert to using our Data API. Starting early 2026 we will be migrating to: https://water.usace.army.mil with modern pages rendered in JavaScript. When this migration completes you will no longer be able to scrape this page! CWMSDataAPI (CDA)

Timeseries IDs (TSIDs)

TSIDs used from left to right in the data table
HACK.Stage.Inst.1Hour.0.Ccp-Rev
HACK.Flow.Inst.1Hour.0.Ccp-Rev
HACK.Volt-Battery Load.Inst.1Hour.0.Ccp-Rev

                            

All information presented herein is the property of the government of the United States of America and may be revised or deleted at any time without prior notice. Dissemination of this information without the expressed written consent of the Public Affairs Office, Tulsa District U.S. Army Corps of Engineers is strictly prohibited. These data are gathered electronically and, as presented, have NOT undergone any form of quality control. These data are NOT guaranteed to be valid or correct.